Olivia, Texas
Current Conditions -  °F | °C
As of 11:55 AM on Tuesday 21 Oct 2014 (Local Time) from KPKV Reporting Station
Clear Clear  
Wind Chill: 26°   Ceiling: Unl
Heat Index: 27°   Visibility: 10mi
Dew Point: 18°   Wind: 9mph
Humidity: 61%   Direction: 70°ENE
Pressure: 30.04"   Gusts: NA
Location:  28.5342°N, 96.663°W
Report Text: KPKV 211655Z AUTO 07008KT 10SM CLR 26/18 A3004 RMK AO2 T02620181
Loading
Personal Weather Stations






























Interactive Weather Map
Tropical Storm Tracking
New forecast layout! Learn more

10-Day Weather Forecast

Advertisements
Track Severe Weather on mobile